createdAt,value
2018-11-03T00:00:11.371Z,15.83
2018-11-03T00:02:40.331Z,16.17
2018-11-03T00:05:09.424Z,16.32
2018-11-03T00:07:38.416Z,15.90
2018-11-03T00:10:08.171Z,16.67
2018-11-03T00:12:37.622Z,16.15
2018-11-03T00:15:06.711Z,16.07
2018-11-03T00:17:35.659Z,14.50
2018-11-03T00:20:04.961Z,16.45
2018-11-03T00:22:34.008Z,16.70
2018-11-03T00:25:02.980Z,14.70
2018-11-03T00:27:31.931Z,17.10
2018-11-03T00:30:00.879Z,15.00
2018-11-03T00:32:30.563Z,15.53
2018-11-03T00:34:59.465Z,13.85
2018-11-03T00:37:28.689Z,16.40
2018-11-03T00:39:57.688Z,17.57
2018-11-03T00:42:26.615Z,15.68
2018-11-03T00:44:55.572Z,17.23
2018-11-03T00:47:24.540Z,17.37
2018-11-03T00:49:53.605Z,18.85
2018-11-03T00:52:22.679Z,17.80
2018-11-03T00:54:51.836Z,17.37
2018-11-03T00:57:20.821Z,17.48
2018-11-03T00:59:50.115Z,16.75
2018-11-03T01:02:19.276Z,18.25
2018-11-03T01:04:48.245Z,18.35
2018-11-03T01:07:17.221Z,17.98
2018-11-03T01:09:46.214Z,19.55
2018-11-03T01:12:15.117Z,19.40
2018-11-03T01:14:44.076Z,19.45
2018-11-03T01:17:13.017Z,21.30
2018-11-03T01:19:42.204Z,22.05
2018-11-03T01:22:11.159Z,21.05
2018-11-03T01:24:40.189Z,20.45
2018-11-03T01:27:09.162Z,21.48
2018-11-03T01:29:38.102Z,22.13
2018-11-03T01:32:07.407Z,20.08
2018-11-03T01:34:36.339Z,21.45
2018-11-03T01:37:05.263Z,20.72
2018-11-03T01:39:34.276Z,22.25
2018-11-03T01:42:03.228Z,21.30
2018-11-03T01:44:32.160Z,21.77
2018-11-03T01:47:01.143Z,22.30
2018-11-03T01:49:30.074Z,21.45
2018-11-03T01:51:59.080Z,22.98
2018-11-03T01:54:28.080Z,23.00
2018-11-03T01:56:57.056Z,22.95
2018-11-03T01:59:26.070Z,25.52
2018-11-03T02:01:55.088Z,24.55
2018-11-03T02:04:23.979Z,25.37
2018-11-03T02:06:52.888Z,27.30
2018-11-03T02:09:21.859Z,24.77
2018-11-03T02:11:50.887Z,27.73
2018-11-03T02:14:19.848Z,27.93
2018-11-03T02:16:48.871Z,27.75
2018-11-03T02:19:17.788Z,27.58
2018-11-03T02:21:46.695Z,29.15
2018-11-03T02:24:15.683Z,27.35
2018-11-03T02:26:44.615Z,28.60
2018-11-03T02:29:13.503Z,30.00
2018-11-03T02:31:42.478Z,28.57
2018-11-03T02:34:11.454Z,30.35
2018-11-03T02:36:40.437Z,31.10
2018-11-03T02:39:10.096Z,30.55
2018-11-03T02:41:39.026Z,32.78
2018-11-03T02:44:08.025Z,28.50
2018-11-03T02:46:36.992Z,30.57
2018-11-03T02:49:06.376Z,29.67
2018-11-03T02:51:35.301Z,30.00
2018-11-03T02:54:04.308Z,27.95
2018-11-03T02:56:33.249Z,27.32
2018-11-03T02:59:02.216Z,28.95
2018-11-03T03:01:31.280Z,31.30
2018-11-03T03:04:00.229Z,30.40
2018-11-03T03:06:29.211Z,30.10
2018-11-03T03:08:58.272Z,31.35
2018-11-03T03:11:27.243Z,29.48
2018-11-03T03:13:56.227Z,29.70
2018-11-03T03:16:25.227Z,30.25
2018-11-03T03:18:54.151Z,30.52
2018-11-03T03:21:23.120Z,30.27
2018-11-03T03:23:52.070Z,29.87
2018-11-03T03:26:20.975Z,28.57
2018-11-03T03:28:50.020Z,28.92
2018-11-03T03:31:18.921Z,29.25
2018-11-03T03:33:47.867Z,28.55
2018-11-03T03:36:16.893Z,29.67
2018-11-03T03:38:45.855Z,32.15
2018-11-03T03:41:14.807Z,27.48
2018-11-03T03:43:43.939Z,30.10
2018-11-03T03:46:12.947Z,32.30
2018-11-03T03:48:42.148Z,31.00
2018-11-03T03:51:11.109Z,28.65
2018-11-03T03:53:40.128Z,32.80
2018-11-03T03:56:09.173Z,30.55
2018-11-03T03:58:38.676Z,33.25
2018-11-03T04:01:07.732Z,32.73
2018-11-03T04:03:36.753Z,32.05
2018-11-03T04:06:05.812Z,34.53
2018-11-03T04:08:34.785Z,33.92
2018-11-03T04:11:03.826Z,32.75
2018-11-03T04:13:32.792Z,35.48
2018-11-03T04:16:01.744Z,32.38
2018-11-03T04:18:30.714Z,33.55
2018-11-03T04:20:59.654Z,34.05
2018-11-03T04:23:28.651Z,33.25
2018-11-03T04:25:57.553Z,33.78
2018-11-03T04:28:27.079Z,32.63
2018-11-03T04:30:56.082Z,31.02
2018-11-03T04:33:25.352Z,32.05
2018-11-03T04:35:54.362Z,30.75
2018-11-03T04:38:23.315Z,29.80
2018-11-03T04:40:52.287Z,31.17
2018-11-03T04:43:21.214Z,32.03
2018-11-03T04:45:50.195Z,31.07
2018-11-03T04:48:19.144Z,27.27
2018-11-03T04:50:48.159Z,31.00
2018-11-03T04:53:17.132Z,28.95
2018-11-03T04:55:46.154Z,32.15
2018-11-03T04:58:15.112Z,28.83
2018-11-03T05:00:44.136Z,28.25
2018-11-03T05:03:13.111Z,29.25
2018-11-03T05:05:42.048Z,29.40
2018-11-03T05:08:11.008Z,29.37
2018-11-03T05:10:39.914Z,28.65
2018-11-03T05:13:08.918Z,30.10
2018-11-03T05:15:37.899Z,28.75
2018-11-03T05:18:06.855Z,29.30
2018-11-03T05:20:35.804Z,27.85
2018-11-03T05:23:05.388Z,31.55
2018-11-03T05:25:34.385Z,32.08
2018-11-03T05:28:03.335Z,27.95
2018-11-03T05:30:32.352Z,27.90
2018-11-03T05:33:01.326Z,29.30
2018-11-03T05:35:30.251Z,29.75
2018-11-03T05:37:59.372Z,28.10
2018-11-03T05:40:28.292Z,30.55
2018-11-03T05:42:57.223Z,29.52
2018-11-03T05:45:26.218Z,29.40
2018-11-03T05:47:55.128Z,34.78
2018-11-03T05:50:24.044Z,30.85
2018-11-03T05:52:53.052Z,32.63
2018-11-03T05:55:22.046Z,31.50
2018-11-03T05:57:50.972Z,35.33
2018-11-03T06:00:19.976Z,34.35
2018-11-03T06:02:48.936Z,33.67
2018-11-03T06:05:17.860Z,36.35
2018-11-03T06:07:46.873Z,35.70
2018-11-03T06:10:15.811Z,36.10
2018-11-03T06:12:44.722Z,32.33
2018-11-03T06:15:13.734Z,34.18
2018-11-03T06:17:42.674Z,34.75
2018-11-03T06:20:11.608Z,30.92
2018-11-03T06:22:40.755Z,30.48
2018-11-03T06:25:10.051Z,33.95
2018-11-03T06:27:40.037Z,32.80
2018-11-03T06:30:10.838Z,30.65
2018-11-03T06:32:39.938Z,31.77
2018-11-03T06:35:10.006Z,33.00
2018-11-03T06:37:38.861Z,30.35
2018-11-03T06:40:08.410Z,30.43
2018-11-03T06:42:37.902Z,32.78
2018-11-03T06:45:08.272Z,30.25
2018-11-03T06:47:37.326Z,31.35
2018-11-03T06:50:07.259Z,30.37
2018-11-03T06:52:36.266Z,30.50
2018-11-03T06:55:06.012Z,26.68
2018-11-03T06:57:34.952Z,32.48
2018-11-03T07:00:04.166Z,32.55
2018-11-03T07:02:33.156Z,31.45
2018-11-03T07:05:02.145Z,32.60
2018-11-03T07:07:31.177Z,31.90
2018-11-03T07:10:00.155Z,30.62
2018-11-03T07:12:29.291Z,27.60
2018-11-03T07:14:58.099Z,27.55
2018-11-03T07:17:27.373Z,29.00
2018-11-03T07:19:56.303Z,30.00
2018-11-03T07:22:25.255Z,28.65
2018-11-03T07:24:54.674Z,28.87
2018-11-03T07:27:23.776Z,28.27
2018-11-03T07:29:52.810Z,28.65
2018-11-03T07:32:21.666Z,30.97
2018-11-03T07:34:50.617Z,30.72
2018-11-03T07:37:19.655Z,30.17
2018-11-03T07:39:48.602Z,33.05
2018-11-03T07:42:17.499Z,30.37
2018-11-03T07:44:46.431Z,29.77
2018-11-03T07:47:15.342Z,30.50
2018-11-03T07:49:44.311Z,31.10
2018-11-03T07:52:13.264Z,29.95
2018-11-03T07:54:42.280Z,29.75
2018-11-03T07:57:11.172Z,31.15
2018-11-03T07:59:40.204Z,29.72
2018-11-03T08:02:09.254Z,30.27
2018-11-03T08:04:38.216Z,30.65
2018-11-03T08:07:07.202Z,29.23
2018-11-03T08:09:36.674Z,30.17
2018-11-03T08:12:05.699Z,30.15
2018-11-03T08:14:34.757Z,30.20
2018-11-03T08:17:04.204Z,28.17
2018-11-03T08:19:33.129Z,29.85
2018-11-03T08:22:02.122Z,26.62
2018-11-03T08:24:31.042Z,31.15
2018-11-03T08:27:00.511Z,31.85
2018-11-03T08:29:29.455Z,31.20
2018-11-03T08:31:58.390Z,26.87
2018-11-03T08:34:27.304Z,27.45
2018-11-03T08:36:56.292Z,29.48
2018-11-03T08:39:25.271Z,26.80
2018-11-03T08:41:54.447Z,27.20
2018-11-03T08:44:23.411Z,25.12
2018-11-03T08:46:52.351Z,27.52
2018-11-03T08:49:21.292Z,28.15
2018-11-03T08:51:50.270Z,24.18
2018-11-03T08:54:19.206Z,25.02
2018-11-03T08:56:48.188Z,26.62
2018-11-03T08:59:17.421Z,21.77
2018-11-03T09:01:46.674Z,23.10
2018-11-03T09:04:15.692Z,24.50
2018-11-03T09:06:44.740Z,22.75
2018-11-03T09:09:13.675Z,19.40
2018-11-03T09:11:42.700Z,20.72
2018-11-03T09:14:11.762Z,21.57
2018-11-03T09:16:40.716Z,20.25
2018-11-03T09:19:09.694Z,19.92
2018-11-03T09:21:39.311Z,21.55
2018-11-03T09:24:08.281Z,19.75
2018-11-03T09:26:37.219Z,23.98
2018-11-03T09:29:06.316Z,21.17
2018-11-03T09:31:35.375Z,19.92
2018-11-03T09:34:04.286Z,18.45
2018-11-03T09:36:33.255Z,17.82
2018-11-03T09:39:03.183Z,21.15
2018-11-03T09:41:32.074Z,19.00
2018-11-03T09:44:01.929Z,18.12
2018-11-03T09:46:30.867Z,20.97
2018-11-03T09:49:00.694Z,19.82
2018-11-03T09:51:29.655Z,18.50
2018-11-03T09:53:58.840Z,19.07
2018-11-03T09:56:28.520Z,18.32
2018-11-03T09:58:57.484Z,17.55
2018-11-03T10:01:28.533Z,17.80
2018-11-03T10:03:58.036Z,18.40
2018-11-03T10:06:27.061Z,18.15
2018-11-03T10:08:56.040Z,17.37
2018-11-03T10:11:25.011Z,20.52
2018-11-03T10:13:53.965Z,18.55
2018-11-03T10:16:22.920Z,16.95
2018-11-03T10:18:51.933Z,17.40
2018-11-03T10:21:20.900Z,15.38
2018-11-03T10:23:49.822Z,17.30
2018-11-03T10:26:18.843Z,15.90
2018-11-03T10:28:47.800Z,16.80
2018-11-03T10:31:16.719Z,17.85
2018-11-03T10:33:45.767Z,16.97
2018-11-03T10:36:14.704Z,15.98
2018-11-03T10:38:43.652Z,18.98
2018-11-03T10:41:12.642Z,16.37
2018-11-03T10:43:41.596Z,17.12
2018-11-03T10:46:10.638Z,17.82
2018-11-03T10:48:39.728Z,18.60
2018-11-03T10:51:09.272Z,19.27
2018-11-03T10:53:38.319Z,17.37
2018-11-03T10:56:07.455Z,18.35
2018-11-03T10:58:36.414Z,20.88
2018-11-03T11:01:11.276Z,16.73
2018-11-03T11:03:45.515Z,18.20
2018-11-03T11:06:19.623Z,16.73
2018-11-03T11:08:53.643Z,17.52
2018-11-03T11:11:27.764Z,18.95
2018-11-03T11:13:56.811Z,16.77
2018-11-03T11:16:25.859Z,15.95
2018-11-03T11:18:54.779Z,26.37
2018-11-03T11:21:23.760Z,17.23
2018-11-03T11:23:52.792Z,17.73
2018-11-03T11:26:21.846Z,17.35
2018-11-03T11:28:50.878Z,16.50
2018-11-03T11:31:19.887Z,18.67
2018-11-03T11:33:48.839Z,16.55
2018-11-03T11:36:17.769Z,21.10
2018-11-03T11:38:46.728Z,19.40
2018-11-03T11:41:15.726Z,17.82
2018-11-03T11:43:44.677Z,18.82
2018-11-03T11:46:13.616Z,17.82
2018-11-03T11:48:42.892Z,18.57
2018-11-03T11:51:12.747Z,18.52
2018-11-03T11:53:41.749Z,15.25
2018-11-03T11:56:10.903Z,16.75
2018-11-03T11:58:39.823Z,14.85
2018-11-03T12:01:08.839Z,17.80
2018-11-03T12:03:37.806Z,15.50
2018-11-03T12:06:06.894Z,15.05
2018-11-03T12:08:35.850Z,13.53
2018-11-03T12:11:05.292Z,14.33
2018-11-03T12:13:34.224Z,14.20
2018-11-03T12:16:03.254Z,14.45
2018-11-03T12:18:32.303Z,14.55
2018-11-03T12:21:01.273Z,15.30
2018-11-03T12:23:30.188Z,13.45
2018-11-03T12:25:59.159Z,15.25
2018-11-03T12:28:28.174Z,15.35
2018-11-03T12:30:57.318Z,13.75
2018-11-03T12:33:26.374Z,13.78
2018-11-03T12:35:55.319Z,15.95
2018-11-03T12:38:24.341Z,15.85
2018-11-03T12:40:53.494Z,14.58
2018-11-03T12:43:22.401Z,15.65
2018-11-03T12:45:51.300Z,13.85
2018-11-03T12:48:20.430Z,16.45
2018-11-03T12:50:49.583Z,16.23
2018-11-03T12:53:18.779Z,15.40
2018-11-03T12:55:47.791Z,15.83
2018-11-03T12:58:16.808Z,15.65
2018-11-03T13:00:45.782Z,16.37
2018-11-03T13:03:14.786Z,17.10
2018-11-03T13:05:43.762Z,17.25
2018-11-03T13:08:12.743Z,14.78
2018-11-03T13:10:41.818Z,16.12
2018-11-03T13:13:10.813Z,16.50
2018-11-03T13:15:39.812Z,16.32
2018-11-03T13:18:09.462Z,15.95
2018-11-03T13:20:38.429Z,15.30
2018-11-03T13:23:07.593Z,16.32
2018-11-03T13:25:36.602Z,16.10
2018-11-03T13:28:06.036Z,14.68
2018-11-03T13:30:35.019Z,14.43
2018-11-03T13:33:04.063Z,13.65
2018-11-03T13:35:33.033Z,13.05
2018-11-03T13:38:02.066Z,16.02
2018-11-03T13:40:31.192Z,14.80
2018-11-03T13:43:00.183Z,13.22
2018-11-03T13:45:29.113Z,13.38
2018-11-03T13:47:58.195Z,13.68
2018-11-03T13:50:27.214Z,13.70
2018-11-03T13:52:56.183Z,13.30
2018-11-03T13:55:25.180Z,12.40
2018-11-03T13:57:54.105Z,14.00
2018-11-03T14:00:23.037Z,13.25
2018-11-03T14:02:52.049Z,12.80
2018-11-03T14:05:21.012Z,12.58
2018-11-03T14:07:49.964Z,11.43
2018-11-03T14:10:18.954Z,13.20
2018-11-03T14:12:47.894Z,12.68
2018-11-03T14:15:18.078Z,12.23
2018-11-03T14:17:47.052Z,13.32
2018-11-03T14:20:16.742Z,15.13
2018-11-03T14:22:46.220Z,15.00
2018-11-03T14:25:16.760Z,16.25
2018-11-03T14:27:46.578Z,13.00
2018-11-03T14:30:15.557Z,14.15
2018-11-03T14:32:44.799Z,14.25
2018-11-03T14:35:14.576Z,15.98
2018-11-03T14:37:43.495Z,15.48
2018-11-03T14:40:14.147Z,15.40
2018-11-03T14:42:43.895Z,15.53
2018-11-03T14:45:13.922Z,14.23
2018-11-03T14:47:42.845Z,12.10
2018-11-03T14:50:11.831Z,13.30
2018-11-03T14:52:41.849Z,12.85
2018-11-03T14:55:11.856Z,13.83
2018-11-03T14:57:40.795Z,13.83
2018-11-03T15:00:14.152Z,15.25
2018-11-03T15:02:43.209Z,15.45
2018-11-03T15:05:12.737Z,15.63
2018-11-03T15:07:41.751Z,12.75
2018-11-03T15:10:11.506Z,16.02
2018-11-03T15:12:41.108Z,17.82
2018-11-03T15:15:11.699Z,15.03
2018-11-03T15:17:40.605Z,18.90
2018-11-03T15:20:10.848Z,16.75
2018-11-03T15:22:40.006Z,17.48
2018-11-03T15:25:09.650Z,18.40
2018-11-03T15:27:38.716Z,15.83
2018-11-03T15:30:09.214Z,17.98
2018-11-03T15:32:38.259Z,16.97
2018-11-03T15:35:07.558Z,16.60
2018-11-03T15:37:36.507Z,17.32
2018-11-03T15:40:06.592Z,16.10
2018-11-03T15:42:35.512Z,17.52
2018-11-03T15:45:04.556Z,17.27
2018-11-03T15:47:33.521Z,15.70
2018-11-03T15:50:02.422Z,16.90
2018-11-03T15:52:31.355Z,16.90
2018-11-03T15:55:00.245Z,16.62
2018-11-03T15:57:29.211Z,17.37
2018-11-03T15:59:58.213Z,15.78
2018-11-03T16:02:27.272Z,16.27
2018-11-03T16:04:56.319Z,19.37
2018-11-03T16:07:25.482Z,17.70
2018-11-03T16:09:54.470Z,14.75
2018-11-03T16:12:23.465Z,16.35
2018-11-03T16:14:53.010Z,17.57
2018-11-03T16:17:22.135Z,17.80
2018-11-03T16:19:51.808Z,18.37
2018-11-03T16:22:20.840Z,18.50
2018-11-03T16:24:49.868Z,18.80
2018-11-03T16:27:18.912Z,20.27
2018-11-03T16:29:47.912Z,20.30
2018-11-03T16:32:17.095Z,17.85
2018-11-03T16:34:45.937Z,19.05
2018-11-03T16:37:14.914Z,19.42
2018-11-03T16:39:44.552Z,19.67
2018-11-03T16:42:13.690Z,20.90
2018-11-03T16:44:42.982Z,21.50
2018-11-03T16:47:11.898Z,18.75
2018-11-03T16:49:40.836Z,18.92
2018-11-03T16:52:09.858Z,21.35
2018-11-03T16:54:38.810Z,19.48
2018-11-03T16:57:07.838Z,23.87
2018-11-03T16:59:36.874Z,19.20
2018-11-03T17:02:06.728Z,21.48
2018-11-03T17:04:35.655Z,21.05
2018-11-03T17:07:06.358Z,21.23
2018-11-03T17:09:35.282Z,23.25
2018-11-03T17:12:04.244Z,21.62
2018-11-03T17:14:33.214Z,21.27
2018-11-03T17:17:02.114Z,20.32
2018-11-03T17:19:31.000Z,20.80
2018-11-03T17:21:59.992Z,21.17
2018-11-03T17:24:28.882Z,21.87
2018-11-03T17:26:57.786Z,22.98
2018-11-03T17:29:26.836Z,23.10
2018-11-03T17:31:55.824Z,26.40
2018-11-03T17:34:25.056Z,23.90
2018-11-03T17:36:54.016Z,21.12
2018-11-03T17:39:22.980Z,22.27
2018-11-03T17:41:52.175Z,21.75
2018-11-03T17:44:21.309Z,23.65
2018-11-03T17:46:50.280Z,24.92
2018-11-03T17:49:19.263Z,24.82
2018-11-03T17:51:48.362Z,27.25
2018-11-03T17:54:17.661Z,23.20
2018-11-03T17:56:46.684Z,24.55
2018-11-03T17:59:15.697Z,23.20
2018-11-03T18:01:44.776Z,23.57
2018-11-03T18:04:13.907Z,25.35
2018-11-03T18:06:43.124Z,28.15
2018-11-03T18:09:12.111Z,25.57
2018-11-03T18:11:41.125Z,29.95
2018-11-03T18:14:10.306Z,26.73
2018-11-03T18:16:39.253Z,26.48
2018-11-03T18:19:08.220Z,27.05
2018-11-03T18:21:37.195Z,30.97
2018-11-03T18:24:06.472Z,32.08
2018-11-03T18:26:35.492Z,29.05
2018-11-03T18:29:04.589Z,34.70
2018-11-03T18:31:33.556Z,28.90
2018-11-03T18:34:02.658Z,31.45
2018-11-03T18:36:31.725Z,28.35
2018-11-03T18:39:00.844Z,34.23
2018-11-03T18:41:29.829Z,30.80
2018-11-03T18:43:58.946Z,29.07
2018-11-03T18:46:28.023Z,29.27
2018-11-03T18:48:57.028Z,29.30
2018-11-03T18:51:26.627Z,33.10
2018-11-03T18:53:55.560Z,30.32
2018-11-03T18:56:24.627Z,28.70
2018-11-03T18:58:53.909Z,29.72
2018-11-03T19:01:23.193Z,30.20
2018-11-03T19:03:52.126Z,28.52
2018-11-03T19:06:21.538Z,28.45
2018-11-03T19:08:51.700Z,28.02
2018-11-03T19:11:22.162Z,30.27
2018-11-03T19:13:51.167Z,30.25
2018-11-03T19:16:20.175Z,29.63
2018-11-03T19:18:49.172Z,27.85
2018-11-03T19:21:18.177Z,34.73
2018-11-03T19:23:47.244Z,32.08
2018-11-03T19:26:16.250Z,27.25
2018-11-03T19:28:45.302Z,26.05
2018-11-03T19:31:14.343Z,27.60
2018-11-03T19:33:43.337Z,27.55
2018-11-03T19:36:12.707Z,29.82
2018-11-03T19:38:41.736Z,27.90
2018-11-03T19:41:10.770Z,31.87
2018-11-03T19:43:39.864Z,26.20
2018-11-03T19:46:08.830Z,29.30
2018-11-03T19:48:38.966Z,28.05
2018-11-03T19:51:08.391Z,31.40
2018-11-03T19:53:38.783Z,28.87
2018-11-03T19:56:07.807Z,30.77
2018-11-03T19:58:37.693Z,30.20
2018-11-03T20:01:06.850Z,27.15
2018-11-03T20:03:36.063Z,28.95
2018-11-03T20:06:05.000Z,26.70
2018-11-03T20:08:34.186Z,28.70
2018-11-03T20:11:03.236Z,32.03
2018-11-03T20:13:32.495Z,27.17
2018-11-03T20:16:01.791Z,28.75
2018-11-03T20:18:30.856Z,28.35
2018-11-03T20:21:00.441Z,30.92
2018-11-03T20:23:29.936Z,30.20
2018-11-03T20:25:59.055Z,31.52
2018-11-03T20:28:28.134Z,29.37
2018-11-03T20:30:57.185Z,30.52
2018-11-03T20:33:26.346Z,33.28
2018-11-03T20:35:55.794Z,27.30
2018-11-03T20:38:24.907Z,30.48
2018-11-03T20:40:54.070Z,25.82
2018-11-03T20:43:24.009Z,32.10
2018-11-03T20:45:53.147Z,28.65
2018-11-03T20:48:22.357Z,28.60
2018-11-03T20:50:57.644Z,27.70
2018-11-03T20:53:27.925Z,30.12
2018-11-03T20:55:57.205Z,27.20
2018-11-03T20:58:26.200Z,28.55
2018-11-03T21:00:57.447Z,30.90
2018-11-03T21:03:26.465Z,29.70
2018-11-03T21:05:55.442Z,28.80
2018-11-03T21:08:24.769Z,29.32
2018-11-03T21:10:53.840Z,31.35
2018-11-03T21:13:22.980Z,24.98
2018-11-03T21:15:51.998Z,27.60
2018-11-03T21:18:20.900Z,30.27
2018-11-03T21:20:49.928Z,27.45
2018-11-03T21:23:19.020Z,27.37
2018-11-03T21:25:53.000Z,27.70
2018-11-03T21:28:23.215Z,27.42
2018-11-03T21:30:52.342Z,29.87
2018-11-03T21:33:21.721Z,29.87
2018-11-03T21:35:50.967Z,30.32
2018-11-03T21:38:20.476Z,27.00
2018-11-03T21:40:50.655Z,27.58
2018-11-03T21:43:20.248Z,31.10
2018-11-03T21:45:49.280Z,29.70
2018-11-03T21:48:18.349Z,27.73
2018-11-03T21:50:47.341Z,28.20
2018-11-03T21:53:16.844Z,28.25
2018-11-03T21:55:46.273Z,27.77
2018-11-03T21:58:15.568Z,30.05
2018-11-03T22:00:45.766Z,27.50
2018-11-03T22:03:15.565Z,31.97
2018-11-03T22:05:45.678Z,26.37
2018-11-03T22:08:14.956Z,28.95
2018-11-03T22:10:44.209Z,26.68
2018-11-03T22:13:14.118Z,28.42
2018-11-03T22:15:44.898Z,27.15
2018-11-03T22:18:14.727Z,28.07
2018-11-03T22:20:43.973Z,28.85
2018-11-03T22:23:13.189Z,26.85
2018-11-03T22:25:42.679Z,25.20
2018-11-03T22:28:12.104Z,26.07
2018-11-03T22:30:41.387Z,26.93
2018-11-03T22:33:10.837Z,30.62
2018-11-03T22:35:40.309Z,25.43
2018-11-03T22:38:09.702Z,24.80
2018-11-03T22:40:38.680Z,25.92
2018-11-03T22:43:07.706Z,28.60
2018-11-03T22:45:36.725Z,26.95
2018-11-03T22:48:06.444Z,30.75
2018-11-03T22:50:35.455Z,26.15
2018-11-03T22:53:04.591Z,26.07
2018-11-03T22:55:33.548Z,24.95
2018-11-03T22:58:02.466Z,26.02
2018-11-03T23:00:31.391Z,28.50
2018-11-03T23:03:00.411Z,24.90
2018-11-03T23:05:29.311Z,26.00
2018-11-03T23:07:58.956Z,28.23
2018-11-03T23:10:27.932Z,28.27
2018-11-03T23:12:57.523Z,27.00
2018-11-03T23:15:26.406Z,26.60
2018-11-03T23:17:55.493Z,27.17
2018-11-03T23:20:24.432Z,27.62
2018-11-03T23:22:53.416Z,25.02
2018-11-03T23:25:22.376Z,26.10
2018-11-03T23:27:51.368Z,27.10
2018-11-03T23:30:20.279Z,26.25
2018-11-03T23:32:49.210Z,24.47
2018-11-03T23:35:18.116Z,26.33
2018-11-03T23:37:47.929Z,25.62
2018-11-03T23:40:16.887Z,25.92
2018-11-03T23:42:45.779Z,28.98
2018-11-03T23:45:15.280Z,27.80
2018-11-03T23:47:44.220Z,28.25
2018-11-03T23:50:14.266Z,26.10
2018-11-03T23:52:45.238Z,27.40
2018-11-03T23:55:14.300Z,28.32
2018-11-03T23:57:43.279Z,28.80
